Time;durP1;ratioP1;P1;durP2;ratioP2;P2;SDS_P1;SDS_P2;PMS_P1;PMS_P2;Temp;Humidity;BMP_temperature;BMP_pressure;BME280_temperature;BME280_humidity;BME280_pressure;Samples;Min_cycle;Max_cycle;Signal;HPM_P1;HPM_P2
2021/09/26 00:00:05;;;;;;;;;;;;;;;11.97;100.00;98108.84;5011615;28;19968;-49
2021/09/26 00:02:38;;;;;;;;;;;;;;;11.94;100.00;98106.41;5045970;28;19917;-50
2021/09/26 00:05:04;;;;;;;;;;;;;;;11.94;100.00;98116.81;5012660;28;19932;-48
2021/09/26 00:07:29;;;;;;;;;;;;;;;11.91;100.00;98131.81;5011126;28;19917;-50
2021/09/26 00:09:55;;;;;;;;;;;;;;;11.92;100.00;98129.13;5011999;28;20019;-48
2021/09/26 00:12:20;;;;;;;;;;;;;;;11.94;100.00;98127.25;5011177;28;20388;-49
2021/09/26 00:14:46;;;;;;;;;;;;;;;11.94;100.00;98119.44;5010956;28;19921;-51
2021/09/26 00:17:11;;;;;;;;;;;;;;;11.96;100.00;98112.38;5010655;28;20016;-51
2021/09/26 00:19:37;;;;;;;;;;;;;;;11.97;100.00;98113.19;5011220;28;19928;-49
2021/09/26 00:22:03;;;;;;;;;;;;;;;11.96;100.00;98108.91;5010923;28;19917;-48
2021/09/26 00:24:28;;;;;;;;;;;;;;;11.92;100.00;98113.50;5026269;28;19960;-49
2021/09/26 00:26:54;;;;;;;;;;;;;;;11.97;100.00;98111.44;5010549;28;19960;-48
2021/09/26 00:29:19;;;;;;;;;;;;;;;11.97;100.00;98111.44;5026300;28;20388;-47
2021/09/26 00:31:45;;;;;;;;;;;;;;;11.99;100.00;98103.50;5010463;28;20000;-47
2021/09/26 00:34:10;;;;;;;;;;;;;;;12.02;100.00;98104.16;5010751;28;20446;-51
2021/09/26 00:36:35;;;;;;;;;;;;;;;12.01;100.00;98105.09;5010483;28;20316;-49
2021/09/26 00:39:01;;;;;;;;;;;;;;;11.95;100.00;98107.25;5010897;28;19924;-51
2021/09/26 00:41:26;;;;;;;;;;;;;;;11.92;100.00;98110.06;5015684;28;19977;-48
2021/09/26 00:43:52;;;;;;;;;;;;;;;11.91;100.00;98119.63;5028472;28;19917;-50
2021/09/26 00:46:18;;;;;;;;;;;;;;;11.91;100.00;98113.59;5026736;28;20529;-54
2021/09/26 00:48:43;;;;;;;;;;;;;;;11.89;100.00;98121.50;5010829;28;19917;-52
2021/09/26 00:51:12;;;;;;;;;;;;;;;11.92;100.00;98117.88;5025301;28;19918;-49
2021/09/26 00:53:41;;;;;;;;;;;;;;;11.93;100.00;98128.19;5010930;28;19925;-52
2021/09/26 00:56:07;;;;;;;;;;;;;;;11.98;100.00;98120.94;4992817;28;20450;-47
2021/09/26 00:58:33;;;;;;;;;;;;;;;12.01;100.00;98122.47;5010078;28;20325;-53
2021/09/26 01:00:58;;;;;;;;;;;;;;;11.93;100.00;98130.81;5025784;28;20013;-51
2021/09/26 01:03:24;;;;;;;;;;;;;;;11.93;100.00;98129.97;5010079;28;19921;-56
2021/09/26 01:05:51;;;;;;;;;;;;;;;11.89;100.00;98124.94;5010795;28;20384;-48
2021/09/26 01:08:43;;;;;;;;;;;;;;;11.87;100.00;98121.63;5025642;28;20004;-47
2021/09/26 01:11:13;;;;;;;;;;;;;;;11.83;100.00;98127.94;5009173;28;19925;-49
2021/09/26 01:14:14;;;;;;;;;;;;;;;11.81;100.00;98126.38;5024758;28;19971;-51
2021/09/26 01:16:55;;;;;;;;;;;;;;;11.78;100.00;98130.00;5008126;28;20512;-51
2021/09/26 01:19:40;;;;;;;;;;;;;;;11.82;100.00;98130.66;5010374;28;20066;-48
2021/09/26 01:22:13;;;;;;;;;;;;;;;11.89;100.00;98144.94;5025297;28;19963;-49
2021/09/26 01:24:57;;;;;;;;;;;;;;;11.95;100.00;98139.34;5010066;28;19963;-48
2021/09/26 01:27:41;;;;;;;;;;;;;;;11.97;100.00;98136.63;5011647;28;19921;-48
2021/09/26 01:30:12;;;;;;;;;;;;;;;11.99;100.00;98137.34;5014442;28;20081;-47
2021/09/26 01:32:39;;;;;;;;;;;;;;;11.97;100.00;98137.47;5013591;28;19971;-45
2021/09/26 01:35:05;;;;;;;;;;;;;;;11.96;100.00;98141.00;5029262;28;19921;-48
2021/09/26 01:37:44;;;;;;;;;;;;;;;11.99;100.00;98140.81;5029464;28;20459;-51
2021/09/26 01:40:13;;;;;;;;;;;;;;;11.97;100.00;98142.69;5029261;28;19924;-48
2021/09/26 01:42:50;;;;;;;;;;;;;;;11.96;100.00;98141.00;5033024;28;19917;-48
2021/09/26 01:45:17;;;;;;;;;;;;;;;11.98;100.00;98146.13;5037570;28;19955;-51
2021/09/26 01:47:51;;;;;;;;;;;;;;;11.95;100.00;98141.94;5029216;28;19917;-49
2021/09/26 01:50:17;;;;;;;;;;;;;;;11.94;100.00;98142.03;4996545;28;19917;-50
2021/09/26 01:52:44;;;;;;;;;;;;;;;11.95;100.00;98151.50;5012946;28;20447;-48
2021/09/26 01:55:10;;;;;;;;;;;;;;;11.91;100.00;98143.06;5029000;28;19927;-49
2021/09/26 01:57:37;;;;;;;;;;;;;;;11.89;100.00;98148.38;5028823;28;19925;-49
2021/09/26 02:00:04;;;;;;;;;;;;;;;11.84;100.00;98144.41;5012964;28;19962;-50
2021/09/26 02:02:37;;;;;;;;;;;;;;;11.75;100.00;98151.03;5013454;28;19917;-53
2021/09/26 02:05:04;;;;;;;;;;;;;;;11.71;100.00;98141.72;5013617;28;19929;-49
2021/09/26 02:07:31;;;;;;;;;;;;;;;11.70;100.00;98149.63;5028777;28;20016;-48
2021/09/26 02:09:56;;;;;;;;;;;;;;;11.76;100.00;98154.47;5012146;28;20060;-49
2021/09/26 02:12:22;;;;;;;;;;;;;;;11.80;100.00;98154.19;5028920;28;20020;-51
2021/09/26 02:14:48;;;;;;;;;;;;;;;11.84;100.00;98147.00;5028094;28;19921;-49
2021/09/26 02:17:14;;;;;;;;;;;;;;;11.87;98.79;98155.47;5020972;28;19924;-49
2021/09/26 02:19:40;;;;;;;;;;;;;;;11.85;98.55;98162.53;5007072;28;20415;-52
2021/09/26 02:22:05;;;;;;;;;;;;;;;11.90;98.74;98159.63;5012880;28;20396;-48
2021/09/26 02:24:32;;;;;;;;;;;;;;;11.92;98.67;98155.16;4995283;28;19924;-47
2021/09/26 02:26:57;;;;;;;;;;;;;;;11.85;97.68;98159.94;5028251;28;19924;-51
2021/09/26 02:29:23;;;;;;;;;;;;;;;11.80;96.74;98158.53;5028846;28;19918;-47
2021/09/26 02:31:48;;;;;;;;;;;;;;;11.83;96.88;98169.59;5013083;28;19928;-52
2021/09/26 02:34:14;;;;;;;;;;;;;;;11.85;96.81;98159.09;5012613;28;19944;-50
2021/09/26 02:36:39;;;;;;;;;;;;;;;11.83;96.39;98166.97;4995607;28;20542;-52
2021/09/26 02:39:06;;;;;;;;;;;;;;;11.86;96.35;98161.59;5011437;28;19963;-49
2021/09/26 02:41:32;;;;;;;;;;;;;;;11.87;96.26;98173.69;5027832;28;19927;-49
2021/09/26 02:44:01;;;;;;;;;;;;;;;11.74;95.22;98172.78;5013095;28;20238;-46
2021/09/26 02:46:30;;;;;;;;;;;;;;;11.72;95.49;98168.59;5031030;28;20023;-50
2021/09/26 02:48:55;;;;;;;;;;;;;;;11.74;95.90;98177.16;5028222;28;19921;-51
2021/09/26 02:51:21;;;;;;;;;;;;;;;11.76;95.66;98173.53;5028053;28;19917;-51
2021/09/26 02:53:46;;;;;;;;;;;;;;;11.79;95.98;98175.94;5028133;28;19925;-49
2021/09/26 02:56:12;;;;;;;;;;;;;;;11.80;95.79;98181.97;5012369;28;19921;-51
2021/09/26 02:58:38;;;;;;;;;;;;;;;11.78;95.85;98176.84;5028159;28;19921;-50
2021/09/26 03:01:03;;;;;;;;;;;;;;;11.80;96.57;98182.81;5027547;28;19924;-55
2021/09/26 03:03:29;;;;;;;;;;;;;;;11.79;97.01;98178.53;5026964;28;19921;-50
2021/09/26 03:05:55;;;;;;;;;;;;;;;11.77;97.95;98176.97;5012563;28;20016;-48
2021/09/26 03:08:21;;;;;;;;;;;;;;;11.78;98.69;98178.63;5012769;28;20031;-53
2021/09/26 03:10:49;;;;;;;;;;;;;;;11.77;99.38;98174.38;5027132;28;20387;-48
2021/09/26 03:13:15;;;;;;;;;;;;;;;11.77;98.74;98167.41;5012567;28;19960;-47
2021/09/26 03:15:40;;;;;;;;;;;;;;;11.72;98.92;98179.81;5011985;28;20091;-49
2021/09/26 03:18:08;;;;;;;;;;;;;;;11.68;98.65;98178.34;5016556;28;19917;-47
2021/09/26 03:20:33;;;;;;;;;;;;;;;11.70;98.89;98184.28;4995127;28;19918;-48
2021/09/26 03:22:59;;;;;;;;;;;;;;;11.69;98.84;98190.44;5022438;28;19939;-46
2021/09/26 03:25:24;;;;;;;;;;;;;;;11.69;99.00;98182.63;5018243;28;20402;-48
2021/09/26 03:27:50;;;;;;;;;;;;;;;11.67;98.51;98178.47;5011683;28;19924;-51
2021/09/26 03:30:16;;;;;;;;;;;;;;;11.70;98.41;98188.66;5012435;28;19917;-49
2021/09/26 03:32:42;;;;;;;;;;;;;;;11.67;97.85;98179.25;5011260;28;19917;-49
2021/09/26 03:35:08;;;;;;;;;;;;;;;11.72;98.08;98182.41;5027065;28;19943;-55
2021/09/26 03:37:33;;;;;;;;;;;;;;;11.76;97.92;98189.16;5011534;28;19924;-51
2021/09/26 03:39:59;;;;;;;;;;;;;;;11.75;97.42;98190.09;5026954;28;20020;-49
2021/09/26 03:42:24;;;;;;;;;;;;;;;11.77;96.82;98183.03;5011862;28;19913;-53
2021/09/26 03:44:50;;;;;;;;;;;;;;;11.76;96.38;98190.91;5013684;28;20435;-51
2021/09/26 03:47:16;;;;;;;;;;;;;;;11.75;96.14;98186.63;5011732;28;19917;-49
2021/09/26 03:49:41;;;;;;;;;;;;;;;11.74;96.38;98184.97;5011370;28;19968;-50
2021/09/26 03:52:07;;;;;;;;;;;;;;;11.74;96.43;98193.63;5011482;28;19925;-49
2021/09/26 03:54:32;;;;;;;;;;;;;;;11.78;96.77;98194.25;5011256;28;19921;-48
2021/09/26 03:56:58;;;;;;;;;;;;;;;11.82;96.58;98193.16;5012156;28;19921;-50
2021/09/26 03:59:23;;;;;;;;;;;;;;;11.80;96.27;98195.00;5011709;28;19927;-53
2021/09/26 04:01:50;;;;;;;;;;;;;;;11.80;96.07;98200.22;5011080;28;19917;-52
2021/09/26 04:04:16;;;;;;;;;;;;;;;11.79;96.04;98204.56;5011325;28;20354;-51
2021/09/26 04:06:42;;;;;;;;;;;;;;;11.73;95.26;98210.16;4997663;28;19917;-49
2021/09/26 04:09:08;;;;;;;;;;;;;;;11.74;95.13;98203.19;5016201;28;20063;-53
2021/09/26 04:11:34;;;;;;;;;;;;;;;11.77;94.93;98210.81;4993575;28;20312;-53
2021/09/26 04:14:00;;;;;;;;;;;;;;;11.75;94.99;98218.72;5000125;28;19916;-52
2021/09/26 04:16:26;;;;;;;;;;;;;;;11.75;95.40;98216.13;5023534;28;20010;-52
2021/09/26 04:18:51;;;;;;;;;;;;;;;11.78;95.03;98221.13;5010994;28;19956;-53
2021/09/26 04:21:17;;;;;;;;;;;;;;;11.81;94.38;98222.72;5010625;28;20809;-53
2021/09/26 04:23:43;;;;;;;;;;;;;;;11.79;94.25;98217.59;5026407;28;20020;-52
2021/09/26 04:26:09;;;;;;;;;;;;;;;11.81;93.55;98220.09;5011229;28;19921;-53
2021/09/26 04:28:34;;;;;;;;;;;;;;;11.85;93.90;98221.59;5026012;28;20312;-52
2021/09/26 04:31:00;;;;;;;;;;;;;;;11.91;93.44;98223.81;5011172;28;19967;-52
2021/09/26 04:33:25;;;;;;;;;;;;;;;11.89;92.32;98229.09;5010940;28;20438;-53
2021/09/26 04:35:51;;;;;;;;;;;;;;;11.91;92.29;98228.16;5010144;28;19976;-49
2021/09/26 04:38:16;;;;;;;;;;;;;;;11.95;92.16;98234.84;5010854;28;20356;-48
2021/09/26 04:40:42;;;;;;;;;;;;;;;11.97;92.10;98233.00;5010804;28;19995;-47
2021/09/26 04:43:08;;;;;;;;;;;;;;;11.99;92.12;98233.72;5026014;28;20304;-48
2021/09/26 04:45:33;;;;;;;;;;;;;;;12.02;91.95;98239.59;5026187;28;20392;-52
2021/09/26 04:47:58;;;;;;;;;;;;;;;12.02;90.85;98239.59;5018483;28;19960;-48
2021/09/26 04:50:24;;;;;;;;;;;;;;;12.06;91.12;98235.84;5010163;28;19917;-48
2021/09/26 04:52:50;;;;;;;;;;;;;;;12.12;91.34;98243.28;5009948;28;20479;-47
2021/09/26 04:55:15;;;;;;;;;;;;;;;12.20;91.27;98234.97;5010451;28;19925;-49
2021/09/26 04:57:41;;;;;;;;;;;;;;;12.23;89.56;98250.41;5009980;28;19949;-49
2021/09/26 05:00:07;;;;;;;;;;;;;;;12.20;90.75;98246.22;5010682;28;19918;-53
2021/09/26 05:02:32;;;;;;;;;;;;;;;12.20;90.85;98248.00;5009933;28;19917;-51
2021/09/26 05:04:58;;;;;;;;;;;;;;;12.20;91.23;98253.19;4992125;28;19932;-49
2021/09/26 05:07:23;;;;;;;;;;;;;;;12.20;91.10;98255.81;5010216;28;19921;-49
2021/09/26 05:09:49;;;;;;;;;;;;;;;12.18;90.80;98257.69;5010336;28;19971;-50
2021/09/26 05:12:14;;;;;;;;;;;;;;;12.19;90.71;98260.22;5010318;28;20308;-49
2021/09/26 05:14:40;;;;;;;;;;;;;;;12.18;90.64;98263.75;5025379;28;19927;-47
2021/09/26 05:17:06;;;;;;;;;;;;;;;12.19;90.92;98256.75;5025743;28;20377;-49
2021/09/26 05:19:32;;;;;;;;;;;;;;;12.20;90.40;98256.66;5010173;28;19991;-49
2021/09/26 05:21:57;;;;;;;;;;;;;;;12.24;90.32;98260.75;5009742;28;20404;-51
2021/09/26 05:24:23;;;;;;;;;;;;;;;12.27;90.25;98265.75;4992392;28;19917;-48
2021/09/26 05:26:48;;;;;;;;;;;;;;;12.24;89.92;98273.78;4992367;28;19921;-48
2021/09/26 05:29:14;;;;;;;;;;;;;;;12.29;90.02;98271.72;5010341;28;19944;-50
2021/09/26 05:31:40;;;;;;;;;;;;;;;12.35;89.74;98267.88;5010281;28;19960;-50
2021/09/26 05:34:05;;;;;;;;;;;;;;;12.40;89.29;98275.41;4997617;28;19917;-49
2021/09/26 05:36:31;;;;;;;;;;;;;;;12.39;89.39;98271.97;5010068;28;19917;-47
2021/09/26 05:38:56;;;;;;;;;;;;;;;12.42;89.14;98279.56;5009826;28;19957;-50
2021/09/26 05:41:22;;;;;;;;;;;;;;;12.45;88.89;98281.16;5024973;28;19924;-48
2021/09/26 05:43:47;;;;;;;;;;;;;;;12.46;88.92;98280.19;5010393;28;19967;-50
2021/09/26 05:46:13;;;;;;;;;;;;;;;12.50;88.49;98282.53;5036431;28;19917;-49
2021/09/26 05:48:39;;;;;;;;;;;;;;;12.60;88.40;98288.81;5017704;28;19921;-50
2021/09/26 05:51:04;;;;;;;;;;;;;;;12.52;86.93;98288.47;5009460;28;19921;-50
2021/09/26 05:53:30;;;;;;;;;;;;;;;12.55;87.38;98293.50;5010303;28;19929;-51
2021/09/26 05:55:55;;;;;;;;;;;;;;;12.64;87.42;98295.50;5009561;28;19921;-49
2021/09/26 05:58:21;;;;;;;;;;;;;;;12.76;86.91;98296.50;5009653;28;19921;-49
2021/09/26 06:00:46;;;;;;;;;;;;;;;12.81;86.56;98297.03;5009426;28;19923;-53
2021/09/26 06:03:12;;;;;;;;;;;;;;;12.82;86.02;98306.53;5016962;28;19921;-55
2021/09/26 06:05:38;;;;;;;;;;;;;;;12.78;85.97;98315.47;5011684;28;19928;-50
2021/09/26 06:08:04;;;;;;;;;;;;;;;12.74;85.64;98309.63;5009960;28;19917;-50
2021/09/26 06:10:29;;;;;;;;;;;;;;;12.81;85.45;98310.06;5009179;28;19988;-50
2021/09/26 06:12:55;;;;;;;;;;;;;;;12.91;84.97;98324.19;5024690;28;19917;-49
2021/09/26 06:15:20;;;;;;;;;;;;;;;13.02;84.64;98326.06;5013192;28;20016;-49
2021/09/26 06:17:46;;;;;;;;;;;;;;;13.15;84.19;98329.56;5022379;28;19916;-49
2021/09/26 06:20:11;;;;;;;;;;;;;;;13.24;83.71;98323.72;5022687;28;19983;-52
2021/09/26 06:22:37;;;;;;;;;;;;;;;13.30;83.36;98327.69;5028311;28;19924;-51
2021/09/26 06:25:03;;;;;;;;;;;;;;;13.30;83.24;98328.53;5013185;28;19917;-67
2021/09/26 06:27:28;;;;;;;;;;;;;;;13.30;83.10;98332.91;5013109;28;20290;-68
2021/09/26 06:29:53;;;;;;;;;;;;;;;13.27;82.81;98338.38;5001478;28;19924;-69
2021/09/26 06:32:19;;;;;;;;;;;;;;;13.20;82.32;98344.91;5035946;28;20308;-68
2021/09/26 06:34:44;;;;;;;;;;;;;;;13.14;82.38;98341.78;5029725;28;19924;-69
2021/09/26 06:37:10;;;;;;;;;;;;;;;13.09;81.96;98349.03;5046070;28;20343;-67
2021/09/26 06:39:35;;;;;;;;;;;;;;;13.07;82.00;98339.66;5025120;28;20016;-65
2021/09/26 06:42:01;;;;;;;;;;;;;;;13.18;81.32;98349.41;5035272;28;20350;-67
2021/09/26 06:44:27;;;;;;;;;;;;;;;13.32;80.95;98354.56;5041000;28;19963;-65
2021/09/26 06:46:52;;;;;;;;;;;;;;;13.43;80.42;98354.66;5025848;28;19923;-66
2021/09/26 06:49:18;;;;;;;;;;;;;;;13.47;79.99;98350.91;5029060;28;19923;-61
2021/09/26 06:51:44;;;;;;;;;;;;;;;13.47;80.03;98358.75;5021981;28;19940;-60
2021/09/26 06:54:09;;;;;;;;;;;;;;;13.34;79.20;98353.53;5012934;28;19917;-62
2021/09/26 06:56:35;;;;;;;;;;;;;;;13.20;80.18;98357.97;5027564;28;19937;-63
2021/09/26 06:59:00;;;;;;;;;;;;;;;13.08;80.68;98362.22;5007420;28;19984;-68
2021/09/26 07:01:26;;;;;;;;;;;;;;;13.02;81.22;98362.59;4994920;28;20003;-65
2021/09/26 07:03:51;;;;;;;;;;;;;;;13.00;80.81;98367.91;5012136;28;20035;-70
2021/09/26 07:06:17;;;;;;;;;;;;;;;12.98;81.66;98369.78;5029424;28;19924;-66
2021/09/26 07:08:42;;;;;;;;;;;;;;;12.92;82.26;98366.75;5013875;28;19984;-59
2021/09/26 07:11:08;;;;;;;;;;;;;;;12.98;82.97;98375.00;5012775;28;19944;-58
2021/09/26 07:13:33;;;;;;;;;;;;;;;13.00;83.51;98380.13;5023268;28;19999;-61
2021/09/26 07:15:59;;;;;;;;;;;;;;;13.12;83.62;98374.97;5020928;28;19970;-58
2021/09/26 07:18:27;;;;;;;;;;;;;;;13.26;83.35;98378.44;5027451;28;19963;-59
2021/09/26 07:20:53;;;;;;;;;;;;;;;13.46;82.77;98384.00;5007901;28;19916;-61
2021/09/26 07:23:18;;;;;;;;;;;;;;;13.60;82.18;98388.34;5037063;28;19916;-60
2021/09/26 07:25:44;;;;;;;;;;;;;;;13.64;82.01;98396.78;5024914;28;20360;-62
2021/09/26 07:28:09;;;;;;;;;;;;;;;13.52;82.49;98398.44;5040037;28;19917;-54
2021/09/26 07:30:35;;;;;;;;;;;;;;;13.50;82.17;98398.53;5018150;28;19984;-51
2021/09/26 07:33:00;;;;;;;;;;;;;;;13.51;82.03;98407.19;5038616;28;19917;-60
2021/09/26 07:35:26;;;;;;;;;;;;;;;13.43;81.66;98406.88;4996276;28;20273;-60
2021/09/26 07:37:51;;;;;;;;;;;;;;;13.27;81.81;98417.50;5021387;28;19964;-59
2021/09/26 07:40:17;;;;;;;;;;;;;;;13.14;82.10;98416.59;5013221;28;19921;-57
2021/09/26 07:42:43;;;;;;;;;;;;;;;13.09;82.48;98429.09;5043327;28;20312;-60
2021/09/26 07:45:09;;;;;;;;;;;;;;;13.13;82.23;98428.84;5017422;28;20002;-63
2021/09/26 07:47:34;;;;;;;;;;;;;;;13.18;82.02;98431.16;5035927;28;20415;-60
2021/09/26 07:50:00;;;;;;;;;;;;;;;13.10;82.37;98433.38;5021251;28;20008;-49
2021/09/26 07:52:26;;;;;;;;;;;;;;;13.00;82.81;98430.53;5026490;28;20304;-60
2021/09/26 07:54:52;;;;;;;;;;;;;;;12.91;82.90;98433.72;5024438;28;19927;-58
2021/09/26 07:57:20;;;;;;;;;;;;;;;12.86;83.15;98437.56;5055353;28;19944;-57
2021/09/26 07:59:46;;;;;;;;;;;;;;;12.82;83.20;98442.16;5029506;28;20304;-55
2021/09/26 08:02:12;;;;;;;;;;;;;;;12.77;83.56;98440.75;5040395;28;19917;-59
2021/09/26 08:04:38;;;;;;;;;;;;;;;12.76;83.94;98445.13;5035980;28;20146;-60
2021/09/26 08:07:04;;;;;;;;;;;;;;;12.77;84.20;98448.59;5005008;28;19923;-73
2021/09/26 08:09:30;;;;;;;;;;;;;;;12.78;84.12;98455.44;5042569;28;20385;-55
2021/09/26 08:11:55;;;;;;;;;;;;;;;12.73;84.43;98456.59;5011035;28;19924;-64
2021/09/26 08:14:21;;;;;;;;;;;;;;;12.70;84.95;98461.16;5031351;28;19966;-56
2021/09/26 08:16:47;;;;;;;;;;;;;;;12.65;85.20;98460.63;5028366;28;19921;-58
2021/09/26 08:19:12;;;;;;;;;;;;;;;12.61;85.63;98472.97;5013085;28;20391;-60
2021/09/26 08:21:38;;;;;;;;;;;;;;;12.56;85.92;98475.03;5056461;28;20453;-57
2021/09/26 08:24:07;;;;;;;;;;;;;;;12.56;85.81;98476.84;5035907;28;19924;-58
2021/09/26 08:26:35;;;;;;;;;;;;;;;12.60;85.48;98475.69;5025091;28;19947;-56
2021/09/26 08:29:01;;;;;;;;;;;;;;;12.66;84.90;98480.53;5027218;28;19913;-52
2021/09/26 08:31:26;;;;;;;;;;;;;;;12.84;84.06;98481.16;5012054;28;19983;-52
2021/09/26 08:33:52;;;;;;;;;;;;;;;13.20;82.85;98481.47;5013613;28;19928;-57
2021/09/26 08:36:17;;;;;;;;;;;;;;;13.56;81.43;98488.69;5023666;28;19972;-59
2021/09/26 08:38:43;;;;;;;;;;;;;;;14.08;78.84;98485.25;5011550;28;20303;-60
2021/09/26 08:41:09;;;;;;;;;;;;;;;14.39;77.33;98493.50;5010723;28;19921;-62
2021/09/26 08:43:34;;;;;;;;;;;;;;;14.47;76.48;98492.16;5010822;28;20408;-55
2021/09/26 08:46:00;;;;;;;;;;;;;;;14.48;76.75;98501.69;5048964;28;19916;-51
2021/09/26 08:48:27;;;;;;;;;;;;;;;14.41;76.77;98501.25;5050325;28;20015;-48
2021/09/26 08:50:52;;;;;;;;;;;;;;;14.33;76.36;98503.53;5006574;28;20007;-51
2021/09/26 08:53:21;;;;;;;;;;;;;;;14.23;75.93;98510.34;5019285;28;20376;-58
2021/09/26 08:55:47;;;;;;;;;;;;;;;14.23;75.68;98507.72;5019354;28;19980;-58
2021/09/26 08:58:13;;;;;;;;;;;;;;;14.21;75.52;98504.38;5039309;28;19956;-61
2021/09/26 09:00:39;;;;;;;;;;;;;;;14.19;75.33;98508.84;5035637;28;19913;-60
2021/09/26 09:03:09;;;;;;;;;;;;;;;14.22;74.63;98500.81;5012286;28;20289;-62
2021/09/26 09:05:36;;;;;;;;;;;;;;;14.32;74.00;98509.69;5012722;28;20354;-60
2021/09/26 09:08:16;;;;;;;;;;;;;;;14.43;73.60;98524.69;5019501;28;19925;-61
2021/09/26 09:10:46;;;;;;;;;;;;;;;14.59;72.96;98526.16;5010430;28;20411;-54
2021/09/26 09:13:12;;;;;;;;;;;;;;;14.62;72.40;98525.09;5010643;28;19921;-62
2021/09/26 09:15:41;;;;;;;;;;;;;;;14.54;71.30;98530.88;5010264;28;19979;-63
2021/09/26 09:18:07;;;;;;;;;;;;;;;14.52;70.78;98532.75;5009435;28;19925;-60
2021/09/26 09:20:34;;;;;;;;;;;;;;;14.55;70.74;98539.56;5009525;28;20563;-61
2021/09/26 09:23:05;;;;;;;;;;;;;;;14.59;69.91;98541.84;5024453;28;20082;-67
2021/09/26 09:25:33;;;;;;;;;;;;;;;14.74;69.25;98539.94;4996516;28;20023;-65
2021/09/26 09:27:59;;;;;;;;;;;;;;;15.21;67.99;98541.84;5044874;28;19917;-62
2021/09/26 09:30:29;;;;;;;;;;;;;;;15.93;65.61;98537.44;5025610;28;19917;-64
2021/09/26 09:32:55;;;;;;;;;;;;;;;16.09;64.98;98543.22;5034226;28;19917;-60
2021/09/26 09:35:21;;;;;;;;;;;;;;;16.25;65.04;98540.28;5019109;28;19943;-59
2021/09/26 09:37:46;;;;;;;;;;;;;;;16.36;64.71;98543.75;5015577;28;19917;-61
2021/09/26 09:40:16;;;;;;;;;;;;;;;16.38;65.02;98546.28;5008616;28;19917;-61
2021/09/26 09:42:43;;;;;;;;;;;;;;;16.40;64.96;98537.31;5023831;28;19940;-57
2021/09/26 09:45:19;;;;;;;;;;;;;;;16.34;64.46;98543.03;5017544;28;19917;-60
2021/09/26 09:48:14;;;;;;;;;;;;;;;16.15;64.78;98548.00;5050871;28;20011;-60
2021/09/26 09:50:44;;;;;;;;;;;;;;;15.83;65.10;98544.31;5013916;28;20012;-60
2021/09/26 09:53:22;;;;;;;;;;;;;;;15.43;65.69;98562.09;5029344;28;19960;-59
2021/09/26 09:56:03;;;;;;;;;;;;;;;15.10;65.95;98552.22;5014059;28;20032;-60
2021/09/26 09:58:36;;;;;;;;;;;;;;;14.94;66.62;98569.94;4996328;28;20070;-61
2021/09/26 10:01:01;;;;;;;;;;;;;;;14.95;67.07;98569.00;4996340;28;19917;-61
2021/09/26 10:03:36;;;;;;;;;;;;;;;15.02;66.74;98563.22;5013896;28;19929;-60
2021/09/26 10:06:03;;;;;;;;;;;;;;;15.05;66.51;98572.66;5013508;28;20477;-61
2021/09/26 10:08:32;;;;;;;;;;;;;;;15.07;66.40;98583.88;5028853;28;19952;-60
2021/09/26 10:11:07;;;;;;;;;;;;;;;14.98;66.77;98585.31;5026204;28;19924;-60
2021/09/26 10:13:33;;;;;;;;;;;;;;;14.79;67.30;98585.78;5015732;28;20098;-60
2021/09/26 10:15:58;;;;;;;;;;;;;;;14.63;68.32;98584.31;5033435;28;20163;-60
2021/09/26 10:18:24;;;;;;;;;;;;;;;14.77;67.89;98590.28;5007700;28;19917;-61
2021/09/26 10:20:49;;;;;;;;;;;;;;;15.41;66.57;98590.16;4996323;28;20008;-61
2021/09/26 10:23:15;;;;;;;;;;;;;;;16.51;63.58;98592.44;5028674;28;20019;-60
2021/09/26 10:25:41;;;;;;;;;;;;;;;17.75;60.27;98587.06;5028560;28;19924;-59
2021/09/26 10:28:06;;;;;;;;;;;;;;;18.92;58.21;98602.72;5012079;28;20016;-60
2021/09/26 10:30:31;;;;;;;;;;;;;;;19.23;57.25;98595.66;5028619;28;19917;-59
2021/09/26 10:32:59;;;;;;;;;;;;;;;18.99;57.40;98603.88;5013004;28;20055;-59
2021/09/26 10:35:26;;;;;;;;;;;;;;;18.63;58.17;98605.22;5013183;28;19922;-60
2021/09/26 10:37:51;;;;;;;;;;;;;;;18.23;59.11;98610.31;5028409;28;19971;-61
2021/09/26 10:40:17;;;;;;;;;;;;;;;17.89;59.45;98608.78;5012974;28;19917;-60
2021/09/26 10:42:43;;;;;;;;;;;;;;;17.53;59.83;98613.38;5013136;28;19987;-60
2021/09/26 10:45:10;;;;;;;;;;;;;;;17.19;60.25;98617.00;5022071;28;20343;-59
2021/09/26 10:47:39;;;;;;;;;;;;;;;16.92;60.13;98620.81;5017893;28;19917;-61
2021/09/26 10:50:08;;;;;;;;;;;;;;;16.75;60.42;98617.78;5012945;28;20008;-60
2021/09/26 10:52:36;;;;;;;;;;;;;;;16.61;60.26;98623.25;5012946;28;19929;-60
2021/09/26 10:55:14;;;;;;;;;;;;;;;16.57;60.22;98629.66;5012736;28;20353;-59
2021/09/26 10:57:40;;;;;;;;;;;;;;;16.69;59.48;98628.78;5013034;28;19917;-60
2021/09/26 11:00:05;;;;;;;;;;;;;;;16.85;59.03;98637.97;5013640;28;19979;-60
2021/09/26 11:02:31;;;;;;;;;;;;;;;16.94;59.07;98645.16;5014808;28;19917;-59
2021/09/26 11:04:58;;;;;;;;;;;;;;;16.75;59.33;98639.63;5032207;28;19920;-58
2021/09/26 11:07:28;;;;;;;;;;;;;;;16.33;60.54;98648.09;5032651;28;19982;-59
2021/09/26 11:09:53;;;;;;;;;;;;;;;15.92;62.03;98653.72;5009572;28;20392;-60
2021/09/26 11:12:38;;;;;;;;;;;;;;;15.59;63.06;98654.38;5011888;28;19921;-59
2021/09/26 11:15:05;;;;;;;;;;;;;;;15.28;64.00;98658.28;5012666;28;19967;-60
2021/09/26 11:17:40;;;;;;;;;;;;;;;15.16;64.56;98653.91;5012562;28;19921;-61
2021/09/26 11:20:06;;;;;;;;;;;;;;;15.04;64.98;98668.66;4994931;28;19983;-61
2021/09/26 11:22:31;;;;;;;;;;;;;;;14.93;65.59;98665.94;4994568;28;19917;-60
2021/09/26 11:24:58;;;;;;;;;;;;;;;14.78;66.23;98680.06;5012441;28;20019;-61
2021/09/26 11:27:31;;;;;;;;;;;;;;;14.69;66.59;98683.31;5012371;28;19917;-60
2021/09/26 11:30:06;;;;;;;;;;;;;;;14.57;67.24;98684.97;4994899;28;20392;-61
2021/09/26 11:32:33;;;;;;;;;;;;;;;14.51;67.13;98685.38;5011898;28;20034;-60
2021/09/26 11:35:00;;;;;;;;;;;;;;;14.47;67.46;98691.75;5027262;28;19929;-61
2021/09/26 11:37:35;;;;;;;;;;;;;;;14.61;67.09;98701.28;5012504;28;19924;-61
2021/09/26 11:40:01;;;;;;;;;;;;;;;14.70;67.53;98698.06;5012079;28;20303;-61
2021/09/26 11:42:32;;;;;;;;;;;;;;;14.65;67.63;98708.00;5027008;28;19925;-61
2021/09/26 11:44:58;;;;;;;;;;;;;;;14.52;68.89;98704.50;5017508;28;19917;-60
2021/09/26 11:47:24;;;;;;;;;;;;;;;14.39;69.34;98714.97;5011923;28;19917;-59
2021/09/26 11:49:49;;;;;;;;;;;;;;;14.25;69.75;98718.41;5011259;28;20064;-67
2021/09/26 11:52:15;;;;;;;;;;;;;;;14.09;70.50;98715.09;5011312;28;20017;-67
2021/09/26 11:54:42;;;;;;;;;;;;;;;14.08;70.62;98723.06;5038265;28;19952;-67
2021/09/26 11:57:12;;;;;;;;;;;;;;;14.25;70.51;98731.50;5012308;28;19955;-64
2021/09/26 11:59:38;;;;;;;;;;;;;;;14.34;70.60;98728.28;5014949;28;19921;-68
2021/09/26 12:02:11;;;;;;;;;;;;;;;14.28;71.05;98736.53;5033174;28;19991;-66
2021/09/26 12:04:37;;;;;;;;;;;;;;;14.15;71.60;98743.47;5012447;28;19925;-66
2021/09/26 12:07:03;;;;;;;;;;;;;;;14.07;72.43;98745.75;5023980;28;20273;-67
2021/09/26 12:09:39;;;;;;;;;;;;;;;14.01;72.46;98756.59;5021322;28;19917;-67
2021/09/26 12:12:10;;;;;;;;;;;;;;;13.98;72.99;98759.38;4997513;28;19922;-66
2021/09/26 12:14:35;;;;;;;;;;;;;;;13.98;73.11;98760.22;5010729;28;19917;-66
2021/09/26 12:17:04;;;;;;;;;;;;;;;14.01;73.17;98761.81;5014298;28;19917;-67
2021/09/26 12:19:30;;;;;;;;;;;;;;;14.13;72.58;98760.22;5011065;28;19921;-67
2021/09/26 12:22:03;;;;;;;;;;;;;;;14.16;72.56;98768.69;5037175;28;19917;-66
2021/09/26 12:24:33;;;;;;;;;;;;;;;14.14;72.91;98765.31;5014565;28;19917;-68
2021/09/26 12:26:58;;;;;;;;;;;;;;;14.04;73.17;98755.53;5011040;28;19921;-69
2021/09/26 12:29:28;;;;;;;;;;;;;;;14.10;73.32;98770.84;5012692;28;19917;-66
2021/09/26 12:31:55;;;;;;;;;;;;;;;14.19;73.47;98765.03;4995274;28;20300;-67
2021/09/26 12:34:22;;;;;;;;;;;;;;;14.21;73.06;98771.84;4997661;28;20341;-66
2021/09/26 12:36:47;;;;;;;;;;;;;;;14.15;73.18;98776.63;5033624;28;20507;-67
2021/09/26 12:39:22;;;;;;;;;;;;;;;14.17;73.06;98777.38;4987383;28;20007;-66
2021/09/26 12:41:49;;;;;;;;;;;;;;;14.23;72.84;98785.66;5030228;28;19948;-67
2021/09/26 12:44:22;;;;;;;;;;;;;;;14.34;72.55;98782.38;5015180;28;19924;-66